createdAt,value
2023-01-21T00:01:07.232Z,49.28
2023-01-21T00:03:34.445Z,49.51
2023-01-21T00:06:02.104Z,49.16
2023-01-21T00:08:29.214Z,49.53
2023-01-21T00:10:56.630Z,49.50
2023-01-21T00:13:23.934Z,49.54
2023-01-21T00:15:51.415Z,49.60
2023-01-21T00:18:18.638Z,49.92
2023-01-21T00:20:46.662Z,49.81
2023-01-21T00:23:13.882Z,49.97
2023-01-21T00:25:41.207Z,49.98
2023-01-21T00:28:08.491Z,50.18
2023-01-21T00:30:37.207Z,49.91
2023-01-21T00:33:04.745Z,50.02
2023-01-21T00:35:31.942Z,50.32
2023-01-21T00:37:59.060Z,50.04
2023-01-21T00:40:26.138Z,50.28
2023-01-21T00:42:53.262Z,50.35
2023-01-21T00:45:20.296Z,50.55
2023-01-21T00:47:47.647Z,50.43
2023-01-21T00:50:14.919Z,50.58
2023-01-21T00:52:42.057Z,50.59
2023-01-21T00:55:09.425Z,50.46
2023-01-21T00:57:36.570Z,50.81
2023-01-21T01:00:05.169Z,50.49
2023-01-21T01:02:32.247Z,50.79
2023-01-21T01:04:59.245Z,50.71
2023-01-21T01:07:26.462Z,50.90
2023-01-21T01:09:53.452Z,50.79
2023-01-21T01:12:20.543Z,50.85
2023-01-21T01:14:48.023Z,51.16
2023-01-21T01:17:15.033Z,51.14
2023-01-21T01:19:42.061Z,51.09
2023-01-21T01:22:09.339Z,51.18
2023-01-21T01:24:36.464Z,51.37
2023-01-21T01:27:03.645Z,51.50
2023-01-21T01:29:30.840Z,51.49
2023-01-21T01:31:58.184Z,51.31
2023-01-21T01:34:25.319Z,51.64
2023-01-21T01:36:52.438Z,51.43
2023-01-21T01:39:19.664Z,51.80
2023-01-21T01:41:46.814Z,51.65
2023-01-21T01:44:51.247Z,51.69
2023-01-21T01:47:19.183Z,51.47
2023-01-21T01:49:47.911Z,51.58
2023-01-21T01:52:17.774Z,51.71
2023-01-21T01:54:51.641Z,51.60
2023-01-21T01:57:22.995Z,51.85
2023-01-21T01:59:51.561Z,51.86
2023-01-21T02:02:20.159Z,51.86
2023-01-21T02:05:00.631Z,52.04
2023-01-21T02:07:30.925Z,51.71
2023-01-21T02:09:58.423Z,52.03
2023-01-21T02:12:25.722Z,51.76
2023-01-21T02:14:52.840Z,51.99
2023-01-21T02:17:53.577Z,51.98
2023-01-21T02:20:59.855Z,51.96
2023-01-21T02:23:38.725Z,51.99
2023-01-21T02:26:29.603Z,51.94
2023-01-21T02:29:25.789Z,52.20
2023-01-21T02:31:58.795Z,52.15
2023-01-21T02:34:31.532Z,52.40
2023-01-21T02:37:01.434Z,52.15
2023-01-21T02:39:33.053Z,52.26
2023-01-21T02:42:05.217Z,52.37
2023-01-21T02:44:42.980Z,52.38
2023-01-21T02:47:27.127Z,52.00
2023-01-21T02:50:15.171Z,52.40
2023-01-21T02:52:42.315Z,52.30
2023-01-21T02:55:16.396Z,52.31
2023-01-21T02:57:49.763Z,52.57
2023-01-21T03:00:28.430Z,52.50
2023-01-21T03:03:32.671Z,52.71
2023-01-21T03:06:18.785Z,52.58
2023-01-21T03:08:52.889Z,52.70
2023-01-21T03:11:21.808Z,52.74
2023-01-21T03:14:16.959Z,52.84
2023-01-21T03:16:58.937Z,52.54
2023-01-21T03:19:50.594Z,52.46
2023-01-21T03:22:22.569Z,52.72
2023-01-21T03:24:52.191Z,52.66
2023-01-21T03:27:24.356Z,52.95
2023-01-21T03:29:57.487Z,52.79
2023-01-21T03:32:27.751Z,52.88
2023-01-21T03:34:56.197Z,52.63
2023-01-21T03:37:36.250Z,52.71
2023-01-21T03:40:24.336Z,52.77
2023-01-21T03:42:52.913Z,53.00
2023-01-21T03:45:47.788Z,52.93
2023-01-21T03:48:27.241Z,52.98
2023-01-21T03:50:59.390Z,53.13
2023-01-21T03:53:26.295Z,53.07
2023-01-21T03:55:53.216Z,53.01
2023-01-21T03:58:20.295Z,52.92
2023-01-21T04:00:48.630Z,52.89
2023-01-21T04:03:15.457Z,52.93
2023-01-21T04:05:42.309Z,53.18
2023-01-21T04:08:09.328Z,52.91
2023-01-21T04:10:36.381Z,53.23
2023-01-21T04:13:03.287Z,52.90
2023-01-21T04:15:30.074Z,53.27
2023-01-21T04:17:56.938Z,53.09
2023-01-21T04:20:23.783Z,52.98
2023-01-21T04:22:50.663Z,52.94
2023-01-21T04:25:17.556Z,52.97
2023-01-21T04:27:44.401Z,53.27
2023-01-21T04:30:11.505Z,53.20
2023-01-21T04:32:38.331Z,53.16
2023-01-21T04:35:05.476Z,53.23
2023-01-21T04:37:32.347Z,53.26
2023-01-21T04:39:59.170Z,53.51
2023-01-21T04:42:26.018Z,53.17
2023-01-21T04:44:52.834Z,53.16
2023-01-21T04:47:19.650Z,53.34
2023-01-21T04:49:46.567Z,53.33
2023-01-21T04:52:13.365Z,53.45
2023-01-21T04:54:40.191Z,53.46
2023-01-21T04:57:07.118Z,53.40
2023-01-21T04:59:34.234Z,53.07
2023-01-21T05:02:01.062Z,53.29
2023-01-21T05:04:27.949Z,53.08
2023-01-21T05:06:55.952Z,53.33
2023-01-21T05:09:22.797Z,53.29
2023-01-21T05:11:49.709Z,53.40
2023-01-21T05:14:16.532Z,53.31
2023-01-21T05:16:43.402Z,53.28
2023-01-21T05:19:10.296Z,53.33
2023-01-21T05:21:37.180Z,53.17
2023-01-21T05:24:04.159Z,53.29
2023-01-21T05:26:30.996Z,53.43
2023-01-21T05:28:57.800Z,53.60
2023-01-21T05:31:25.438Z,53.65
2023-01-21T05:33:52.337Z,53.43
2023-01-21T05:36:19.205Z,53.68
2023-01-21T05:38:46.045Z,53.68
2023-01-21T05:41:12.824Z,53.59
2023-01-21T05:43:39.651Z,53.50
2023-01-21T05:46:06.664Z,53.42
2023-01-21T05:48:33.526Z,53.55
2023-01-21T05:51:00.401Z,53.62
2023-01-21T05:53:27.466Z,53.30
2023-01-21T05:55:55.668Z,53.54
2023-01-21T05:58:23.642Z,53.42
2023-01-21T06:00:50.897Z,53.42
2023-01-21T06:03:18.991Z,53.36
2023-01-21T06:05:47.268Z,53.42
2023-01-21T06:08:14.093Z,53.58
2023-01-21T06:10:41.313Z,53.34
2023-01-21T06:13:11.394Z,53.11
2023-01-21T06:15:38.368Z,52.71
2023-01-21T06:18:05.381Z,52.56
2023-01-21T06:20:32.577Z,52.22
2023-01-21T06:23:02.032Z,52.28
2023-01-21T06:25:28.877Z,52.26
2023-01-21T06:27:56.307Z,52.15
2023-01-21T06:30:24.662Z,52.19
2023-01-21T06:32:52.324Z,52.39
2023-01-21T06:35:19.691Z,52.33
2023-01-21T06:37:46.731Z,52.14
2023-01-21T06:40:14.709Z,52.39
2023-01-21T06:42:41.710Z,52.43
2023-01-21T06:45:09.320Z,52.70
2023-01-21T06:47:36.256Z,52.22
2023-01-21T06:50:03.132Z,52.30
2023-01-21T06:52:30.006Z,52.28
2023-01-21T06:54:56.841Z,52.81
2023-01-21T06:57:23.882Z,52.62
2023-01-21T06:59:50.945Z,52.90
2023-01-21T07:02:17.839Z,52.84
2023-01-21T07:04:45.646Z,52.73
2023-01-21T07:07:12.552Z,52.81
2023-01-21T07:09:39.425Z,52.54
2023-01-21T07:12:06.413Z,52.57
2023-01-21T07:14:33.266Z,52.56
2023-01-21T07:17:00.066Z,52.36
2023-01-21T07:19:27.359Z,52.41
2023-01-21T07:21:54.850Z,52.42
2023-01-21T07:24:21.968Z,52.53
2023-01-21T07:26:48.935Z,52.22
2023-01-21T07:29:16.014Z,52.54
2023-01-21T07:31:42.872Z,52.26
2023-01-21T07:34:09.917Z,52.14
2023-01-21T07:36:36.804Z,52.34
2023-01-21T07:39:03.816Z,52.30
2023-01-21T07:41:30.766Z,51.63
2023-01-21T07:43:57.780Z,51.59
2023-01-21T07:46:24.743Z,52.15
2023-01-21T07:48:52.594Z,52.28
2023-01-21T07:51:20.533Z,52.09
2023-01-21T07:53:47.907Z,51.88
2023-01-21T07:56:15.258Z,51.88
2023-01-21T07:58:42.253Z,52.16
2023-01-21T08:01:10.130Z,52.45
2023-01-21T08:03:37.846Z,52.35
2023-01-21T08:06:06.353Z,52.44
2023-01-21T08:08:33.886Z,52.40
2023-01-21T08:11:00.752Z,52.34
2023-01-21T08:13:27.663Z,52.38
2023-01-21T08:15:56.369Z,52.41
2023-01-21T08:18:24.601Z,52.77
2023-01-21T08:20:56.218Z,52.46
2023-01-21T08:23:23.208Z,52.52
2023-01-21T08:25:50.403Z,52.72
2023-01-21T08:28:17.609Z,52.46
2023-01-21T08:30:44.963Z,52.42
2023-01-21T08:33:11.948Z,52.78
2023-01-21T08:35:38.949Z,52.64
2023-01-21T08:38:06.259Z,52.74
2023-01-21T08:40:33.110Z,52.97
2023-01-21T08:43:01.770Z,52.97
2023-01-21T08:45:29.130Z,52.74
2023-01-21T08:47:56.552Z,52.83
2023-01-21T08:50:26.805Z,52.87
2023-01-21T08:52:55.421Z,53.20
2023-01-21T08:55:26.949Z,52.89
2023-01-21T08:57:54.912Z,52.62
2023-01-21T09:00:23.093Z,52.05
2023-01-21T09:02:51.700Z,52.07
2023-01-21T09:05:19.013Z,52.42
2023-01-21T09:07:46.738Z,52.61
2023-01-21T09:10:33.990Z,52.40
2023-01-21T09:13:08.619Z,52.32
2023-01-21T09:15:43.330Z,52.33
2023-01-21T09:18:10.412Z,52.30
2023-01-21T09:20:37.981Z,52.42
2023-01-21T09:23:24.586Z,52.40
2023-01-21T09:25:53.678Z,52.49
2023-01-21T09:28:22.107Z,52.41
2023-01-21T09:30:49.130Z,52.16
2023-01-21T09:33:16.762Z,52.33
2023-01-21T09:35:44.631Z,52.02
2023-01-21T09:38:13.106Z,52.35
2023-01-21T09:40:45.458Z,51.88
2023-01-21T09:43:20.428Z,51.81
2023-01-21T09:45:50.879Z,52.10
2023-01-21T09:48:31.908Z,51.98
2023-01-21T09:51:03.578Z,51.61
2023-01-21T09:53:44.092Z,51.81
2023-01-21T09:56:23.330Z,51.61
2023-01-21T09:59:21.038Z,51.35
2023-01-21T10:01:50.281Z,51.26
2023-01-21T10:04:26.352Z,51.22
2023-01-21T10:06:53.365Z,50.52
2023-01-21T10:09:47.272Z,49.85
2023-01-21T10:12:29.079Z,50.47
2023-01-21T10:15:02.061Z,49.16
2023-01-21T10:17:56.028Z,50.00
2023-01-21T10:20:56.013Z,50.42
2023-01-21T10:23:45.244Z,49.41
2023-01-21T10:26:14.185Z,50.07
2023-01-21T10:28:57.105Z,49.41
2023-01-21T10:31:27.521Z,47.31
2023-01-21T10:33:55.084Z,48.30
2023-01-21T10:36:45.070Z,48.97
2023-01-21T10:39:45.336Z,49.58
2023-01-21T10:42:17.566Z,49.53
2023-01-21T10:44:48.253Z,49.45
2023-01-21T10:47:20.705Z,49.40
2023-01-21T10:50:18.418Z,49.55
2023-01-21T10:52:47.977Z,49.41
2023-01-21T10:55:34.885Z,49.54
2023-01-21T10:58:05.797Z,49.08
2023-01-21T11:00:39.051Z,48.98
2023-01-21T11:03:15.786Z,48.62
2023-01-21T11:05:43.853Z,48.67
2023-01-21T11:08:21.818Z,47.95
2023-01-21T11:10:53.675Z,48.86
2023-01-21T11:13:20.727Z,48.93
2023-01-21T11:15:55.308Z,49.11
2023-01-21T11:18:42.595Z,49.13
2023-01-21T11:21:20.331Z,48.57
2023-01-21T11:23:56.324Z,48.41
2023-01-21T11:26:29.082Z,48.38
2023-01-21T11:29:16.948Z,48.37
2023-01-21T11:32:02.749Z,48.72
2023-01-21T11:34:30.437Z,48.15
2023-01-21T11:37:06.983Z,48.38
2023-01-21T11:39:38.531Z,48.09
2023-01-21T11:42:12.141Z,47.98
2023-01-21T11:44:53.953Z,47.99
2023-01-21T11:47:30.389Z,48.12
2023-01-21T11:50:10.348Z,48.61
2023-01-21T11:52:37.368Z,48.83
2023-01-21T11:55:13.074Z,48.96
2023-01-21T11:57:40.170Z,48.95
2023-01-21T12:00:18.661Z,48.97
2023-01-21T12:02:51.509Z,47.01
2023-01-21T12:05:29.622Z,45.44
2023-01-21T12:07:57.548Z,47.16
2023-01-21T12:10:27.432Z,48.27
2023-01-21T12:13:13.054Z,48.67
2023-01-21T12:16:03.851Z,47.09
2023-01-21T12:18:42.967Z,47.96
2023-01-21T12:21:28.116Z,47.57
2023-01-21T12:24:20.959Z,46.82
2023-01-21T12:26:56.592Z,46.90
2023-01-21T12:29:57.594Z,47.35
2023-01-21T12:32:39.727Z,48.14
2023-01-21T12:35:24.893Z,48.12
2023-01-21T12:37:59.455Z,48.37
2023-01-21T12:41:18.777Z,48.93
2023-01-21T12:43:52.958Z,48.69
2023-01-21T12:46:49.204Z,48.78
2023-01-21T12:49:24.808Z,48.73
2023-01-21T12:52:00.019Z,48.88
2023-01-21T12:54:48.674Z,48.53
2023-01-21T12:57:29.712Z,48.44
2023-01-21T13:00:37.844Z,48.52
2023-01-21T13:03:17.678Z,48.94
2023-01-21T13:05:55.498Z,48.85
2023-01-21T13:08:34.976Z,48.82
2023-01-21T13:11:22.575Z,48.95
2023-01-21T13:14:07.879Z,49.01
2023-01-21T13:16:39.873Z,49.07
2023-01-21T13:19:09.797Z,48.94
2023-01-21T13:21:43.354Z,49.25
2023-01-21T13:24:23.180Z,49.08
2023-01-21T13:27:16.894Z,49.38
2023-01-21T13:30:20.275Z,49.29
2023-01-21T13:32:58.975Z,49.15
2023-01-21T13:35:41.467Z,48.72
2023-01-21T13:38:19.285Z,48.82
2023-01-21T13:41:14.045Z,48.83
2023-01-21T13:43:55.060Z,49.00
2023-01-21T13:46:22.254Z,48.74
2023-01-21T13:49:12.127Z,48.73
2023-01-21T13:51:44.231Z,48.71
2023-01-21T13:54:25.592Z,48.67
2023-01-21T13:57:18.349Z,48.70
2023-01-21T14:00:18.264Z,48.74
2023-01-21T14:03:07.478Z,48.77
2023-01-21T14:05:47.110Z,48.89
2023-01-21T14:08:35.924Z,48.96
2023-01-21T14:11:25.211Z,48.97
2023-01-21T14:14:04.218Z,47.93
2023-01-21T14:16:47.097Z,48.09
2023-01-21T14:19:41.607Z,48.31
2023-01-21T14:22:20.452Z,48.66
2023-01-21T14:24:47.758Z,48.60
2023-01-21T14:27:51.607Z,48.64
2023-01-21T14:30:29.312Z,48.87
2023-01-21T14:33:08.227Z,48.49
2023-01-21T14:35:48.036Z,48.65
2023-01-21T14:38:24.422Z,48.95
2023-01-21T14:41:03.587Z,48.25
2023-01-21T14:43:30.536Z,47.69
2023-01-21T14:45:59.938Z,47.88
2023-01-21T14:48:32.194Z,48.17
2023-01-21T14:51:08.283Z,48.30
2023-01-21T14:53:50.711Z,48.36
2023-01-21T14:56:29.372Z,48.46
2023-01-21T14:59:06.195Z,48.40
2023-01-21T15:01:36.197Z,48.27
2023-01-21T15:04:08.217Z,48.03
2023-01-21T15:06:40.455Z,48.09
2023-01-21T15:09:15.521Z,48.16
2023-01-21T15:11:44.373Z,48.32
2023-01-21T15:14:21.985Z,48.35
2023-01-21T15:16:49.137Z,48.40
2023-01-21T15:19:24.281Z,48.26
2023-01-21T15:22:00.197Z,48.27
2023-01-21T15:24:30.661Z,48.42
2023-01-21T15:27:12.971Z,47.97
2023-01-21T15:29:42.285Z,47.96
2023-01-21T15:32:49.156Z,48.17
2023-01-21T15:35:18.903Z,47.81
2023-01-21T15:37:49.361Z,48.04
2023-01-21T15:40:25.786Z,47.89
2023-01-21T15:43:03.362Z,47.60
2023-01-21T15:45:48.863Z,47.42
2023-01-21T15:48:41.174Z,47.31
2023-01-21T15:51:50.405Z,47.29
2023-01-21T15:54:29.261Z,47.51
2023-01-21T15:57:14.960Z,46.96
2023-01-21T15:59:59.993Z,46.57
2023-01-21T16:02:32.068Z,46.60
2023-01-21T16:05:07.135Z,46.82
2023-01-21T16:08:04.285Z,46.73
2023-01-21T16:10:57.537Z,46.85
2023-01-21T16:13:47.421Z,47.24
2023-01-21T16:16:15.817Z,47.36
2023-01-21T16:18:51.721Z,47.80
2023-01-21T16:21:23.003Z,47.23
2023-01-21T16:23:52.311Z,47.23
2023-01-21T16:26:32.997Z,47.43
2023-01-21T16:29:00.948Z,47.51
2023-01-21T16:31:28.209Z,47.36
2023-01-21T16:33:55.191Z,47.49
2023-01-21T16:36:22.261Z,47.66
2023-01-21T16:38:49.381Z,47.58
2023-01-21T16:41:24.392Z,47.46
2023-01-21T16:43:58.358Z,47.79
2023-01-21T16:46:32.955Z,47.85
2023-01-21T16:49:01.594Z,47.81
2023-01-21T16:51:35.126Z,47.98
2023-01-21T16:54:20.690Z,47.92
2023-01-21T16:56:48.954Z,47.85
2023-01-21T16:59:25.620Z,47.70
2023-01-21T17:01:53.494Z,47.86
2023-01-21T17:04:20.690Z,48.11
2023-01-21T17:06:47.891Z,48.41
2023-01-21T17:09:36.630Z,48.38
2023-01-21T17:12:08.815Z,48.82
2023-01-21T17:14:37.368Z,48.90
2023-01-21T17:17:08.280Z,49.31
2023-01-21T17:19:38.745Z,49.39
2023-01-21T17:22:27.602Z,49.49
2023-01-21T17:25:23.905Z,49.95
2023-01-21T17:27:50.968Z,49.41
2023-01-21T17:30:38.333Z,49.82
2023-01-21T17:33:05.472Z,49.69
2023-01-21T17:35:35.920Z,49.52
2023-01-21T17:38:06.105Z,49.73
2023-01-21T17:40:48.184Z,49.78
2023-01-21T17:43:25.617Z,49.77
2023-01-21T17:45:55.382Z,49.70
2023-01-21T17:48:46.269Z,49.77
2023-01-21T17:51:18.014Z,49.81
2023-01-21T17:53:56.693Z,49.87
2023-01-21T17:56:40.578Z,50.07
2023-01-21T17:59:38.065Z,49.79
2023-01-21T18:02:10.665Z,49.61
2023-01-21T18:04:37.628Z,49.24
2023-01-21T18:07:15.978Z,48.23
2023-01-21T18:09:43.458Z,48.53
2023-01-21T18:12:11.530Z,48.73
2023-01-21T18:14:38.443Z,48.66
2023-01-21T18:17:05.500Z,48.72
2023-01-21T18:19:38.092Z,48.94
2023-01-21T18:22:07.302Z,49.09
2023-01-21T18:24:35.888Z,48.86
2023-01-21T18:27:03.540Z,49.18
2023-01-21T18:29:31.474Z,49.05
2023-01-21T18:31:59.426Z,48.96
2023-01-21T18:34:26.575Z,49.13
2023-01-21T18:36:54.977Z,49.07
2023-01-21T18:39:22.232Z,48.99
2023-01-21T18:41:49.161Z,48.70
2023-01-21T18:44:17.106Z,48.98
2023-01-21T18:46:44.427Z,48.95
2023-01-21T18:49:15.850Z,48.98
2023-01-21T18:51:43.710Z,49.14
2023-01-21T18:54:11.731Z,49.06
2023-01-21T18:56:38.911Z,48.76
2023-01-21T18:59:32.369Z,48.73
2023-01-21T19:01:59.640Z,48.72
2023-01-21T19:04:28.878Z,48.71
2023-01-21T19:06:56.153Z,48.79
2023-01-21T19:09:25.668Z,48.66
2023-01-21T19:11:53.047Z,48.62
2023-01-21T19:14:19.995Z,48.60
2023-01-21T19:16:47.190Z,48.66
2023-01-21T19:19:16.179Z,48.68
2023-01-21T19:21:43.558Z,48.55
2023-01-21T19:24:12.236Z,48.58
2023-01-21T19:26:40.754Z,48.27
2023-01-21T19:29:16.871Z,48.50
2023-01-21T19:31:44.258Z,48.15
2023-01-21T19:34:11.557Z,48.37
2023-01-21T19:36:40.624Z,48.73
2023-01-21T19:39:18.334Z,48.99
2023-01-21T19:41:48.518Z,49.13
2023-01-21T19:44:15.979Z,49.41
2023-01-21T19:46:43.670Z,49.59
2023-01-21T19:49:16.429Z,49.60
2023-01-21T19:51:44.722Z,49.71
2023-01-21T19:54:11.863Z,49.60
2023-01-21T19:56:39.738Z,49.43
2023-01-21T19:59:12.206Z,48.65
2023-01-21T20:01:39.974Z,49.09
2023-01-21T20:04:07.795Z,49.45
2023-01-21T20:06:40.899Z,49.43
2023-01-21T20:09:16.243Z,49.28
2023-01-21T20:11:43.767Z,49.24
2023-01-21T20:14:12.150Z,49.23
2023-01-21T20:16:47.571Z,48.80
2023-01-21T20:19:17.713Z,49.00
2023-01-21T20:21:59.850Z,48.71
2023-01-21T20:24:30.674Z,48.11
2023-01-21T20:26:59.583Z,48.59
2023-01-21T20:29:30.115Z,48.52
2023-01-21T20:31:57.427Z,48.67
2023-01-21T20:34:25.602Z,48.06
2023-01-21T20:36:54.555Z,48.05
2023-01-21T20:39:22.605Z,48.15
2023-01-21T20:41:50.550Z,48.35
2023-01-21T20:44:18.707Z,48.10
2023-01-21T20:46:46.938Z,48.06
2023-01-21T20:49:14.999Z,47.97
2023-01-21T20:51:47.649Z,47.91
2023-01-21T20:54:15.966Z,48.09
2023-01-21T20:56:44.272Z,47.93
2023-01-21T20:59:11.956Z,47.89
2023-01-21T21:01:40.495Z,47.80
2023-01-21T21:04:09.301Z,47.87
2023-01-21T21:06:37.938Z,47.52
2023-01-21T21:09:06.902Z,47.63
2023-01-21T21:11:34.946Z,47.87
2023-01-21T21:14:05.255Z,47.84
2023-01-21T21:16:36.252Z,47.52
2023-01-21T21:19:04.767Z,47.80
2023-01-21T21:21:32.457Z,47.76
2023-01-21T21:24:01.214Z,47.92
2023-01-21T21:26:33.971Z,47.74
2023-01-21T21:29:01.820Z,47.68
2023-01-21T21:31:33.108Z,47.66
2023-01-21T21:34:00.548Z,47.34
2023-01-21T21:36:27.996Z,47.37
2023-01-21T21:38:58.097Z,47.36
2023-01-21T21:41:45.815Z,47.35
2023-01-21T21:44:14.285Z,47.45
2023-01-21T21:47:00.219Z,47.63
2023-01-21T21:49:29.175Z,47.50
2023-01-21T21:51:57.336Z,47.61
2023-01-21T21:54:24.357Z,47.49
2023-01-21T21:56:52.034Z,47.64
2023-01-21T21:59:19.289Z,47.49
2023-01-21T22:01:46.900Z,47.05
2023-01-21T22:04:14.164Z,46.88
2023-01-21T22:06:41.755Z,46.73
2023-01-21T22:09:09.697Z,46.47
2023-01-21T22:11:36.971Z,46.78
2023-01-21T22:14:05.227Z,46.64
2023-01-21T22:16:34.598Z,46.54
2023-01-21T22:19:03.658Z,46.83
2023-01-21T22:21:33.629Z,47.01
2023-01-21T22:24:03.088Z,46.79
2023-01-21T22:26:30.227Z,47.13
2023-01-21T22:28:58.137Z,46.93
2023-01-21T22:31:27.742Z,47.29
2023-01-21T22:33:55.359Z,47.40
2023-01-21T22:36:24.642Z,47.18
2023-01-21T22:38:52.928Z,47.53
2023-01-21T22:41:22.625Z,47.69
2023-01-21T22:43:50.784Z,47.50
2023-01-21T22:46:24.018Z,47.74
2023-01-21T22:48:51.430Z,47.76
2023-01-21T22:51:19.898Z,47.84
2023-01-21T22:53:48.115Z,48.08
2023-01-21T22:56:17.681Z,48.04
2023-01-21T22:58:45.256Z,48.08
2023-01-21T23:01:23.078Z,48.12
2023-01-21T23:03:50.306Z,48.23
2023-01-21T23:06:18.312Z,48.54
2023-01-21T23:08:45.846Z,48.46
2023-01-21T23:11:17.781Z,48.45
2023-01-21T23:13:46.101Z,48.68
2023-01-21T23:16:19.423Z,48.83
2023-01-21T23:18:46.472Z,48.58
2023-01-21T23:21:17.709Z,48.90
2023-01-21T23:23:44.970Z,49.05
2023-01-21T23:26:13.574Z,49.01
2023-01-21T23:28:41.151Z,48.89
2023-01-21T23:31:15.479Z,49.20
2023-01-21T23:33:43.041Z,49.23
2023-01-21T23:36:13.739Z,49.32
2023-01-21T23:38:41.977Z,49.24
2023-01-21T23:41:11.706Z,49.38
2023-01-21T23:43:39.576Z,49.33
2023-01-21T23:46:08.782Z,49.73
2023-01-21T23:48:35.784Z,49.72
2023-01-21T23:51:08.163Z,49.53
2023-01-21T23:53:37.574Z,49.57
2023-01-21T23:56:06.880Z,49.63
2023-01-21T23:58:38.428Z,49.91
